Bovina, Colorado
Current Conditions -  °F | °C
As of 12:55 AM on Friday 24 Oct 2014 (Local Time) from KLIC Reporting Station
Clear Clear  
Wind Chill: 50°   Ceiling: Unl
Heat Index: 50°   Visibility: 10mi
Dew Point: 34°   Wind: 3mph
Humidity: 54%   Direction: NA
Pressure: 30.17"   Gusts: NA
Location:  39.4374°N, 103.393°W
Report Text: KLIC 240655Z AUTO VRB03KT 10SM CLR 10/01 A3017 RMK AO2 SLP162 T01000011 402280022
Loading
Personal Weather Stations






























Interactive Weather Map
Tropical Storm Tracking
New forecast layout! Learn more

10-Day Weather Forecast

Advertisements
Track Severe Weather on mobile